Time;durP1;ratioP1;P1;durP2;ratioP2;P2;SDS_P1;SDS_P2;PMS_P1;PMS_P2;Temp;Humidity;BMP_temperature;BMP_pressure;BME280_temperature;BME280_humidity;BME280_pressure;Samples;Min_cycle;Max_cycle;Signal;HPM_P1;HPM_P2
2022/01/10 00:00:29;;;;;;;9.07;6.13;;;2.80;81.60;;;;;;4993691;28;20026;-68
2022/01/10 00:02:57;;;;;;;8.57;6.60;;;2.80;81.60;;;;;;4996293;28;20038;-69
2022/01/10 00:05:23;;;;;;;10.25;6.25;;;2.80;81.40;;;;;;4999284;28;20030;-69
2022/01/10 00:07:49;;;;;;;9.35;6.15;;;2.80;81.40;;;;;;5004927;28;20390;-69
2022/01/10 00:10:16;;;;;;;10.38;6.50;;;2.80;81.10;;;;;;4999403;28;20445;-69
2022/01/10 00:12:41;;;;;;;9.57;6.75;;;2.80;80.90;;;;;;4995570;28;20057;-69
2022/01/10 00:15:08;;;;;;;8.73;6.53;;;2.70;80.90;;;;;;4996906;28;20398;-69
2022/01/10 00:17:38;;;;;;;12.65;7.28;;;2.70;80.90;;;;;;4998101;28;20121;-69
2022/01/10 00:20:06;;;;;;;12.10;7.70;;;2.60;81.10;;;;;;4998638;28;22440;-68
2022/01/10 00:22:32;;;;;;;10.30;7.43;;;2.60;81.30;;;;;;4998954;28;20039;-70
2022/01/10 00:24:57;;;;;;;11.63;7.40;;;2.50;81.40;;;;;;5003911;28;20034;-69
2022/01/10 00:27:23;;;;;;;10.35;7.32;;;2.50;82.40;;;;;;4999780;28;20520;-69
2022/01/10 00:29:49;;;;;;;9.13;6.35;;;2.50;81.70;;;;;;5000397;28;20408;-69
2022/01/10 00:32:14;;;;;;;12.93;6.40;;;2.50;81.80;;;;;;4998851;28;20218;-70
2022/01/10 00:34:40;;;;;;;8.73;6.50;;;2.40;81.70;;;;;;4995234;28;20084;-69
2022/01/10 00:37:05;;;;;;;9.80;6.32;;;2.40;81.60;;;;;;4995344;28;20624;-69
2022/01/10 00:39:31;;;;;;;11.13;6.90;;;2.40;81.70;;;;;;4998378;28;20561;-69
2022/01/10 00:41:57;;;;;;;11.18;6.72;;;2.40;81.80;;;;;;4995303;28;20704;-69
2022/01/10 00:44:26;;;;;;;9.57;6.70;;;2.50;81.80;;;;;;4996613;28;20061;-70
2022/01/10 00:46:52;;;;;;;12.95;7.40;;;2.50;81.80;;;;;;4997426;28;20039;-69
2022/01/10 00:49:18;;;;;;;13.05;8.07;;;2.50;81.80;;;;;;4998113;28;20038;-69
2022/01/10 00:51:44;;;;;;;14.18;8.77;;;2.50;81.70;;;;;;4994495;28;20089;-69
2022/01/10 00:54:09;;;;;;;12.68;8.70;;;2.50;81.60;;;;;;4999087;28;20034;-69
2022/01/10 00:56:35;;;;;;;12.00;8.23;;;2.50;81.50;;;;;;5000079;28;20038;-70
2022/01/10 00:59:00;;;;;;;11.95;8.23;;;2.60;81.40;;;;;;4995780;28;20042;-68
2022/01/10 01:01:26;;;;;;;11.52;8.07;;;2.60;81.30;;;;;;4995287;28;20057;-69
2022/01/10 01:03:51;;;;;;;13.38;7.55;;;2.60;81.20;;;;;;4999126;28;20034;-69
2022/01/10 01:06:17;;;;;;;11.40;7.68;;;2.60;81.10;;;;;;4997955;28;20029;-70
2022/01/10 01:08:44;;;;;;;11.73;8.05;;;2.60;81.00;;;;;;4998683;28;20048;-69
2022/01/10 01:13:58;;;;;;;10.65;7.55;;;2.50;80.60;;;;;;4995259;28;20045;-69
2022/01/10 01:19:50;;;;;;;10.93;7.60;;;2.50;80.40;;;;;;4997951;28;20050;-69
2022/01/10 01:24:34;;;;;;;13.02;8.00;;;2.40;80.50;;;;;;4986991;28;20040;-70
2022/01/10 01:26:59;;;;;;;12.93;7.95;;;2.30;80.60;;;;;;4998697;28;20026;-70
2022/01/10 01:29:28;;;;;;;11.20;8.07;;;2.30;80.60;;;;;;4991885;28;20113;-69
2022/01/10 01:31:54;;;;;;;14.25;7.80;;;2.30;80.50;;;;;;5001663;28;20640;-69
2022/01/10 01:34:21;;;;;;;10.82;7.03;;;2.30;80.40;;;;;;4995829;28;20122;-69
2022/01/10 01:36:50;;;;;;;12.77;8.23;;;2.30;80.40;;;;;;4999568;28;20045;-69
2022/01/10 01:39:21;;;;;;;12.75;8.00;;;2.30;80.40;;;;;;4993895;28;20034;-68
2022/01/10 01:41:49;;;;;;;11.05;7.40;;;2.20;80.40;;;;;;4989581;28;20116;-69
2022/01/10 01:44:16;;;;;;;12.35;8.48;;;2.20;80.40;;;;;;4986658;28;20053;-68
2022/01/10 01:46:42;;;;;;;14.32;8.45;;;2.10;80.40;;;;;;5003299;28;20509;-69
2022/01/10 01:49:10;;;;;;;12.52;8.05;;;2.10;80.40;;;;;;5005049;28;20552;-68
2022/01/10 01:51:36;;;;;;;14.10;8.27;;;2.10;80.60;;;;;;5000104;28;20038;-69
2022/01/10 01:54:02;;;;;;;14.60;9.10;;;2.10;80.60;;;;;;4998643;28;20575;-69
2022/01/10 01:56:28;;;;;;;15.05;8.82;;;2.00;80.60;;;;;;4999172;28;20505;-69
2022/01/10 01:58:55;;;;;;;13.82;8.55;;;2.00;80.80;;;;;;5001577;28;20057;-69
2022/01/10 02:01:22;;;;;;;13.35;8.20;;;1.90;80.80;;;;;;4998080;28;20401;-68
2022/01/10 02:03:49;;;;;;;11.63;7.90;;;1.90;80.90;;;;;;4998566;28;20436;-68
2022/01/10 02:06:16;;;;;;;14.75;7.75;;;1.90;81.10;;;;;;5005076;28;20046;-68
2022/01/10 02:08:42;;;;;;;12.40;7.68;;;1.90;81.20;;;;;;5004167;28;20037;-69
2022/01/10 02:11:11;;;;;;;14.40;8.48;;;1.90;81.30;;;;;;4998436;28;20042;-69
2022/01/10 02:13:37;;;;;;;15.10;8.38;;;1.90;81.30;;;;;;5005203;28;20049;-69
2022/01/10 02:16:06;;;;;;;12.57;8.35;;;2.00;81.40;;;;;;5016041;28;20038;-68
2022/01/10 02:18:33;;;;;;;14.70;8.95;;;2.00;81.40;;;;;;5000583;28;20045;-68
2022/01/10 02:21:02;;;;;;;11.60;7.68;;;2.00;81.30;;;;;;5002096;28;20116;-69
2022/01/10 02:23:28;;;;;;;12.63;8.15;;;2.00;81.30;;;;;;5006793;28;20030;-68
2022/01/10 02:25:55;;;;;;;12.40;7.95;;;2.10;81.30;;;;;;4997476;28;20037;-68
2022/01/10 02:28:21;;;;;;;14.95;7.97;;;2.10;81.30;;;;;;5002445;28;20033;-68
2022/01/10 02:30:47;;;;;;;14.43;8.15;;;2.10;81.30;;;;;;5002776;28;20041;-69
2022/01/10 02:33:12;;;;;;;11.70;7.95;;;2.10;81.20;;;;;;5001929;28;20042;-68
2022/01/10 02:36:00;;;;;;;11.18;8.23;;;2.10;81.10;;;;;;4997025;28;20042;-68
2022/01/10 02:38:25;;;;;;;13.45;7.88;;;2.20;80.90;;;;;;5000894;28;20513;-68
2022/01/10 02:40:52;;;;;;;15.50;8.88;;;2.20;80.70;;;;;;5002017;28;20032;-68
2022/01/10 02:43:18;;;;;;;15.10;9.40;;;2.10;81.50;;;;;;4997054;28;20048;-68
2022/01/10 02:45:45;;;;;;;12.15;8.45;;;2.10;80.60;;;;;;4997402;28;20062;-68
2022/01/10 02:48:10;;;;;;;11.50;7.90;;;2.10;80.70;;;;;;5002414;28;20026;-68
2022/01/10 02:50:36;;;;;;;12.68;8.23;;;2.10;80.90;;;;;;4998862;28;20034;-69
2022/01/10 02:53:02;;;;;;;12.45;8.27;;;2.10;80.90;;;;;;4996862;28;20446;-68
2022/01/10 02:55:28;;;;;;;12.55;8.10;;;2.10;80.90;;;;;;4999909;28;20387;-69
2022/01/10 02:57:53;;;;;;;11.63;8.05;;;2.10;81.10;;;;;;5000754;28;20091;-68
2022/01/10 03:00:23;;;;;;;11.88;8.05;;;2.10;82.00;;;;;;4999368;28;20042;-68
2022/01/10 03:02:51;;;;;;;13.20;8.30;;;2.10;81.10;;;;;;4998899;28;20044;-68
2022/01/10 03:05:18;;;;;;;11.38;8.18;;;2.10;81.10;;;;;;4998234;28;20041;-68
2022/01/10 03:07:44;;;;;;;10.82;7.75;;;2.10;81.10;;;;;;5002645;28;20037;-68
2022/01/10 03:10:11;;;;;;;11.40;7.65;;;2.00;81.20;;;;;;4998687;28;20034;-67
2022/01/10 03:12:37;;;;;;;11.32;7.55;;;2.00;81.30;;;;;;4999000;28;20038;-69
2022/01/10 03:15:05;;;;;;;10.52;7.20;;;2.00;81.30;;;;;;5001092;28;20418;-69
2022/01/10 03:17:31;;;;;;;10.93;7.10;;;2.00;81.40;;;;;;5003891;28;20517;-69
2022/01/10 03:19:57;;;;;;;10.55;7.43;;;2.00;81.50;;;;;;5000377;28;20131;-69
2022/01/10 03:22:22;;;;;;;10.63;6.88;;;2.00;81.60;;;;;;4998531;28;20034;-69
2022/01/10 03:24:48;;;;;;;12.05;7.30;;;2.10;81.80;;;;;;4997443;28;20137;-69
2022/01/10 03:27:13;;;;;;;11.55;7.72;;;2.10;81.70;;;;;;4998402;28;20049;-69
2022/01/10 03:29:39;;;;;;;12.20;7.45;;;2.10;81.70;;;;;;4999156;28;20045;-67
2022/01/10 03:32:07;;;;;;;12.57;7.68;;;2.10;81.60;;;;;;5002488;28;20076;-68
2022/01/10 03:34:33;;;;;;;9.75;6.50;;;2.20;81.60;;;;;;4996656;28;20989;-69
2022/01/10 03:36:59;;;;;;;10.55;7.30;;;2.20;81.50;;;;;;4998724;28;20034;-67
2022/01/10 03:39:25;;;;;;;15.55;8.27;;;2.20;81.40;;;;;;5000039;28;20757;-69
2022/01/10 03:41:50;;;;;;;18.17;9.25;;;2.20;81.30;;;;;;5004471;28;20046;-69
2022/01/10 03:44:16;;;;;;;18.73;9.48;;;2.20;81.30;;;;;;4997311;28;20054;-68
2022/01/10 03:46:42;;;;;;;14.68;8.75;;;2.20;81.40;;;;;;4999922;28;20642;-69
2022/01/10 03:49:08;;;;;;;13.48;7.90;;;2.10;81.30;;;;;;5002163;28;20137;-70
2022/01/10 03:51:34;;;;;;;13.60;8.57;;;2.10;81.40;;;;;;5005010;28;20441;-69
2022/01/10 03:54:00;;;;;;;10.98;7.60;;;2.10;81.60;;;;;;5005915;28;20580;-68
2022/01/10 03:56:29;;;;;;;13.25;7.82;;;2.10;81.70;;;;;;5006547;28;20042;-68
2022/01/10 03:58:56;;;;;;;12.40;7.68;;;2.10;81.90;;;;;;5004715;28;20061;-68
2022/01/10 04:01:22;;;;;;;10.18;7.32;;;2.00;82.00;;;;;;5004863;28;20037;-69
2022/01/10 04:03:47;;;;;;;11.68;7.28;;;2.00;82.10;;;;;;5003328;28;20026;-69
2022/01/10 04:06:13;;;;;;;10.90;7.57;;;2.10;82.30;;;;;;4995952;28;20091;-69
2022/01/10 04:08:39;;;;;;;10.93;7.18;;;2.10;82.30;;;;;;5000353;28;20041;-67
2022/01/10 04:11:05;;;;;;;10.43;7.25;;;2.10;82.40;;;;;;4995763;28;20045;-68
2022/01/10 04:13:31;;;;;;;10.00;6.85;;;2.10;82.50;;;;;;4999850;28;20037;-68
2022/01/10 04:15:56;;;;;;;9.30;6.93;;;2.10;82.60;;;;;;4999699;28;20066;-69
2022/01/10 04:18:22;;;;;;;10.68;7.15;;;2.10;82.80;;;;;;5004324;28;20124;-69
2022/01/10 04:20:48;;;;;;;13.35;7.18;;;2.10;82.80;;;;;;5000247;28;20129;-69
2022/01/10 04:23:15;;;;;;;10.00;7.40;;;2.20;82.80;;;;;;4998586;28;20117;-68
2022/01/10 04:25:41;;;;;;;13.43;7.72;;;2.20;82.80;;;;;;5002337;28;20034;-69
2022/01/10 04:28:07;;;;;;;10.00;7.13;;;2.30;82.80;;;;;;5004282;28;20034;-68
2022/01/10 04:30:34;;;;;;;10.45;6.97;;;2.30;82.60;;;;;;4997450;28;20036;-68
2022/01/10 04:33:01;;;;;;;12.55;7.93;;;2.30;82.60;;;;;;4999289;28;20037;-69
2022/01/10 04:35:28;;;;;;;11.15;6.97;;;2.30;82.60;;;;;;4996001;28;20095;-68
2022/01/10 04:37:54;;;;;;;17.77;9.23;;;2.40;82.60;;;;;;5015330;28;20073;-68
2022/01/10 04:40:20;;;;;;;18.77;9.85;;;2.40;82.50;;;;;;4997105;28;20635;-68
2022/01/10 04:42:46;;;;;;;16.02;9.75;;;2.40;83.20;;;;;;4994929;28;20037;-68
2022/01/10 04:45:12;;;;;;;15.63;9.25;;;2.40;82.30;;;;;;4999533;28;20042;-69
2022/01/10 04:47:39;;;;;;;12.65;8.57;;;2.50;82.40;;;;;;5000034;28;20563;-69
2022/01/10 04:52:44;;;;;;;14.43;8.60;;;2.50;82.50;;;;;;4996161;28;20034;-69
2022/01/10 04:55:11;;;;;;;17.20;9.40;;;2.50;82.40;;;;;;4996457;28;20641;-68
2022/01/10 04:57:36;;;;;;;19.10;11.18;;;2.50;82.50;;;;;;4996507;28;20041;-68
2022/01/10 05:00:04;;;;;;;22.48;12.52;;;2.60;82.60;;;;;;4997930;28;20049;-69
2022/01/10 05:02:30;;;;;;;24.08;11.85;;;2.60;82.60;;;;;;4998468;28;20125;-68
2022/01/10 05:04:55;;;;;;;18.05;10.48;;;2.60;82.50;;;;;;4998888;28;20564;-68
2022/01/10 05:07:21;;;;;;;12.70;8.50;;;2.60;82.50;;;;;;4999769;28;20711;-69
2022/01/10 05:09:46;;;;;;;12.05;8.32;;;2.60;82.50;;;;;;4996446;28;20038;-69
2022/01/10 05:12:12;;;;;;;12.77;9.07;;;2.70;82.60;;;;;;4995320;28;20045;-69
2022/01/10 05:14:39;;;;;;;12.13;8.73;;;2.70;82.50;;;;;;4997139;28;20102;-68
2022/01/10 05:17:05;;;;;;;12.70;8.57;;;2.70;82.50;;;;;;4998261;28;20056;-69
2022/01/10 05:19:30;;;;;;;17.73;10.25;;;2.70;82.40;;;;;;4996381;28;21030;-67
2022/01/10 05:21:56;;;;;;;14.57;9.45;;;2.70;82.20;;;;;;4994913;28;20096;-69
2022/01/10 05:24:22;;;;;;;15.40;9.57;;;2.70;82.10;;;;;;4996644;28;20050;-71
2022/01/10 05:26:47;;;;;;;14.88;9.55;;;2.80;82.20;;;;;;4994071;28;20409;-69
2022/01/10 05:29:13;;;;;;;15.85;10.00;;;2.80;82.10;;;;;;5003598;28;20592;-68
2022/01/10 05:31:39;;;;;;;15.75;10.20;;;2.80;82.10;;;;;;5008485;28;20493;-68
2022/01/10 05:34:05;;;;;;;14.88;9.65;;;2.80;82.10;;;;;;5005097;28;20571;-67
2022/01/10 05:36:31;;;;;;;15.00;9.95;;;2.80;82.00;;;;;;5002520;28;20113;-68
2022/01/10 05:38:57;;;;;;;17.45;10.45;;;2.80;81.80;;;;;;5005582;28;20033;-68
2022/01/10 05:41:23;;;;;;;15.85;10.35;;;2.90;81.80;;;;;;5008460;28;20033;-68
2022/01/10 05:43:49;;;;;;;15.32;10.40;;;2.80;82.50;;;;;;5007783;28;20140;-69
2022/01/10 05:46:21;;;;;;;15.65;10.32;;;2.90;81.60;;;;;;5010497;28;20084;-68
2022/01/10 05:48:49;;;;;;;18.35;11.75;;;2.80;81.60;;;;;;5009332;28;20489;-68
2022/01/10 05:51:19;;;;;;;19.80;12.35;;;2.80;81.60;;;;;;5010642;28;20204;-69
2022/01/10 05:53:49;;;;;;;15.82;10.55;;;2.80;81.70;;;;;;5011243;28;20034;-69
2022/01/10 05:56:15;;;;;;;15.77;10.20;;;2.80;81.70;;;;;;5008769;28;20134;-69
2022/01/10 05:58:41;;;;;;;14.18;9.82;;;2.80;81.80;;;;;;5009192;28;20441;-68
2022/01/10 06:01:07;;;;;;;14.27;9.57;;;2.90;81.90;;;;;;5010130;28;20030;-68
2022/01/10 06:03:32;;;;;;;11.82;8.25;;;2.80;81.80;;;;;;5010595;28;20054;-68
2022/01/10 06:05:58;;;;;;;13.07;8.38;;;2.80;81.80;;;;;;5011435;28;20026;-68
2022/01/10 06:08:23;;;;;;;13.25;8.65;;;2.90;81.80;;;;;;5009442;28;20034;-70
2022/01/10 06:10:49;;;;;;;12.93;9.15;;;2.80;81.70;;;;;;5010028;28;20049;-68
2022/01/10 06:13:15;;;;;;;13.88;8.93;;;2.90;81.70;;;;;;5010208;28;20068;-69
2022/01/10 06:15:41;;;;;;;12.55;8.57;;;2.80;81.60;;;;;;5007706;28;20029;-68
2022/01/10 06:18:07;;;;;;;12.88;8.10;;;2.80;81.60;;;;;;5009980;28;20062;-69
2022/01/10 06:20:33;;;;;;;12.68;7.90;;;2.80;81.80;;;;;;5011332;28;20022;-69
2022/01/10 06:22:59;;;;;;;11.98;8.30;;;2.80;81.90;;;;;;5009172;28;20033;-68
2022/01/10 06:25:27;;;;;;;14.23;8.73;;;2.80;82.00;;;;;;5008044;28;20072;-69
2022/01/10 06:27:53;;;;;;;15.10;9.77;;;2.90;82.00;;;;;;5026049;28;20037;-69
2022/01/10 06:30:18;;;;;;;15.75;9.65;;;2.80;81.80;;;;;;5008257;28;20030;-68
2022/01/10 06:32:44;;;;;;;14.73;10.32;;;2.90;81.80;;;;;;5005920;28;20042;-68
2022/01/10 06:35:10;;;;;;;15.40;9.45;;;2.90;81.80;;;;;;5006860;28;20034;-69
2022/01/10 06:37:36;;;;;;;13.20;9.68;;;2.90;81.80;;;;;;5006922;28;20125;-68
2022/01/10 06:40:05;;;;;;;15.57;9.95;;;2.90;81.80;;;;;;5005221;28;20181;-68
2022/01/10 06:42:31;;;;;;;17.60;10.00;;;2.90;81.80;;;;;;5005166;28;20034;-69
2022/01/10 06:44:56;;;;;;;15.55;10.77;;;2.90;81.80;;;;;;5006555;28;20052;-69
2022/01/10 06:47:22;;;;;;;13.23;9.10;;;2.90;81.80;;;;;;5004174;28;20069;-68
2022/01/10 06:49:47;;;;;;;13.25;9.20;;;2.80;81.80;;;;;;5002927;28;20524;-68
2022/01/10 06:52:13;;;;;;;13.20;8.98;;;2.80;82.00;;;;;;5005919;28;20432;-68
2022/01/10 06:54:39;;;;;;;11.70;8.55;;;2.80;82.00;;;;;;5005785;28;20075;-69
2022/01/10 06:57:05;;;;;;;13.73;9.43;;;2.90;82.10;;;;;;5006951;28;20372;-68
2022/01/10 06:59:30;;;;;;;13.77;9.88;;;2.90;82.10;;;;;;5004686;28;20452;-68
2022/01/10 07:01:58;;;;;;;15.13;9.88;;;2.90;82.10;;;;;;5004962;28;20030;-68
2022/01/10 07:04:27;;;;;;;14.48;8.75;;;2.90;82.10;;;;;;5006500;28;20101;-68
2022/01/10 07:06:54;;;;;;;17.13;9.45;;;2.90;82.00;;;;;;5006761;28;20505;-68
2022/01/10 07:09:20;;;;;;;17.33;9.93;;;2.90;81.80;;;;;;5004846;28;20077;-67
2022/01/10 07:11:46;;;;;;;19.40;11.20;;;2.90;81.80;;;;;;5002470;28;20069;-67
2022/01/10 07:14:12;;;;;;;21.05;13.10;;;2.90;81.70;;;;;;5005479;28;20045;-68
2022/01/10 07:16:38;;;;;;;16.75;11.20;;;2.90;81.80;;;;;;5004793;28;20056;-68
2022/01/10 07:19:06;;;;;;;17.77;11.30;;;2.90;82.00;;;;;;5007271;28;20030;-67
2022/01/10 07:21:32;;;;;;;18.85;12.15;;;2.90;82.10;;;;;;5005098;28;20041;-68
2022/01/10 07:23:58;;;;;;;23.42;12.88;;;2.90;82.10;;;;;;5003300;28;20116;-67
2022/01/10 07:26:24;;;;;;;29.98;15.13;;;2.90;82.10;;;;;;5002659;28;20456;-68
2022/01/10 07:28:49;;;;;;;28.98;14.90;;;3.00;82.10;;;;;;5004580;28;20030;-68
2022/01/10 07:31:15;;;;;;;20.98;11.43;;;3.00;82.00;;;;;;5004245;28;20042;-68
2022/01/10 07:33:40;;;;;;;22.17;11.30;;;3.00;82.00;;;;;;5007633;28;20061;-68
2022/01/10 07:36:07;;;;;;;18.35;10.32;;;3.00;82.00;;;;;;5005353;28;20034;-67
2022/01/10 07:38:35;;;;;;;20.27;11.55;;;2.90;82.00;;;;;;5005371;28;20037;-68
2022/01/10 07:41:05;;;;;;;17.83;11.27;;;2.90;82.00;;;;;;5004995;28;20065;-68
2022/01/10 07:43:32;;;;;;;14.52;9.30;;;2.90;82.20;;;;;;5004835;28;20026;-68
2022/01/10 07:45:58;;;;;;;16.77;10.23;;;2.90;82.30;;;;;;5007032;28;20034;-68
2022/01/10 07:48:27;;;;;;;15.48;10.20;;;2.90;82.30;;;;;;5004214;28;20034;-69
2022/01/10 07:50:52;;;;;;;17.05;9.88;;;3.00;82.50;;;;;;5004594;28;20045;-67
2022/01/10 07:53:18;;;;;;;16.27;9.02;;;3.00;82.40;;;;;;5004941;28;20030;-69
2022/01/10 07:55:44;;;;;;;22.35;11.23;;;2.90;82.40;;;;;;5006304;28;20026;-69
2022/01/10 07:58:10;;;;;;;14.65;9.35;;;3.00;82.50;;;;;;5004857;28;20088;-68
2022/01/10 08:00:36;;;;;;;13.43;8.20;;;3.00;82.40;;;;;;5001789;28;20034;-67
2022/01/10 08:03:02;;;;;;;13.77;8.35;;;3.00;82.40;;;;;;5003646;28;20125;-68
2022/01/10 08:05:27;;;;;;;11.55;7.30;;;3.00;82.40;;;;;;5005384;28;20041;-67
2022/01/10 08:07:53;;;;;;;13.40;8.13;;;3.10;82.40;;;;;;5004223;28;20026;-68
2022/01/10 08:10:18;;;;;;;17.42;9.20;;;3.10;82.30;;;;;;5003404;28;20037;-68
2022/01/10 08:12:44;;;;;;;16.05;9.00;;;3.10;82.30;;;;;;5000559;28;20053;-67
2022/01/10 08:15:10;;;;;;;14.20;8.73;;;3.20;82.50;;;;;;5002792;28;20072;-66
2022/01/10 08:17:37;;;;;;;14.00;9.07;;;3.20;82.50;;;;;;5002491;28;20038;-67
2022/01/10 08:20:04;;;;;;;14.00;9.60;;;3.20;82.50;;;;;;5004077;28;20042;-68
2022/01/10 08:22:30;;;;;;;17.38;10.10;;;3.30;82.50;;;;;;5003926;28;20104;-67
2022/01/10 08:24:55;;;;;;;19.27;10.55;;;3.30;82.30;;;;;;5004815;28;20034;-69
2022/01/10 08:27:21;;;;;;;19.35;11.52;;;3.30;82.30;;;;;;5004159;28;20461;-68
2022/01/10 08:29:48;;;;;;;18.05;9.82;;;3.30;82.30;;;;;;5004913;28;20105;-66
2022/01/10 08:32:14;;;;;;;24.33;11.93;;;3.40;83.30;;;;;;5001512;28;20121;-68
2022/01/10 08:34:40;;;;;;;18.15;11.45;;;3.40;82.30;;;;;;5004301;28;20169;-68
2022/01/10 08:37:06;;;;;;;18.33;11.63;;;3.40;82.20;;;;;;5004712;28;20529;-67
2022/01/10 08:39:32;;;;;;;17.88;11.88;;;3.40;82.20;;;;;;5004892;28;20029;-68
2022/01/10 08:41:58;;;;;;;16.63;11.15;;;3.40;82.30;;;;;;5001925;28;20034;-67
2022/01/10 08:44:24;;;;;;;18.52;11.82;;;3.50;82.20;;;;;;5003016;28;20040;-69
2022/01/10 08:46:49;;;;;;;19.30;11.40;;;3.50;82.20;;;;;;5004042;28;20037;-67
2022/01/10 08:49:15;;;;;;;18.35;11.38;;;3.50;82.20;;;;;;5003721;28;20099;-67
2022/01/10 08:51:42;;;;;;;18.00;10.68;;;3.50;82.20;;;;;;5004416;28;20038;-67
2022/01/10 08:54:08;;;;;;;21.20;11.55;;;3.60;82.20;;;;;;5004992;28;20034;-68
2022/01/10 08:56:34;;;;;;;23.98;12.48;;;3.60;82.10;;;;;;5001868;28;20468;-68
2022/01/10 08:59:00;;;;;;;21.20;11.55;;;3.60;82.10;;;;;;5003627;28;20058;-68
2022/01/10 09:01:26;;;;;;;17.48;9.38;;;3.60;82.00;;;;;;5001462;28;20034;-67
2022/01/10 09:03:52;;;;;;;14.55;8.82;;;3.60;82.00;;;;;;5000910;28;20398;-68
2022/01/10 09:06:18;;;;;;;13.88;8.55;;;3.60;81.80;;;;;;5003214;28;20050;-69
2022/01/10 09:08:46;;;;;;;13.85;8.73;;;3.60;81.80;;;;;;5004695;28;20088;-67
2022/01/10 09:11:12;;;;;;;12.88;7.78;;;3.70;81.80;;;;;;5004732;28;20044;-68
2022/01/10 09:13:38;;;;;;;11.55;7.32;;;3.70;81.80;;;;;;5005264;28;20404;-67
2022/01/10 09:16:06;;;;;;;12.40;7.57;;;3.70;81.60;;;;;;5002329;28;20466;-67
2022/01/10 09:18:32;;;;;;;14.02;8.10;;;3.70;81.60;;;;;;5003952;28;20052;-69
2022/01/10 09:20:58;;;;;;;15.63;8.02;;;3.70;81.60;;;;;;5003287;28;20061;-68
2022/01/10 09:23:24;;;;;;;17.08;8.80;;;3.60;81.50;;;;;;5002001;28;20485;-68
2022/01/10 09:25:50;;;;;;;12.75;7.72;;;3.70;81.60;;;;;;5004392;28;20037;-68
2022/01/10 09:28:17;;;;;;;13.60;8.07;;;3.70;81.80;;;;;;5004642;28;20552;-67
2022/01/10 09:30:43;;;;;;;15.35;8.48;;;3.70;82.00;;;;;;5004430;28;20037;-68
2022/01/10 09:33:08;;;;;;;13.05;8.15;;;3.70;82.00;;;;;;5005044;28;20038;-67
2022/01/10 09:35:34;;;;;;;12.15;7.65;;;3.70;82.00;;;;;;5004507;28;20034;-68
2022/01/10 09:38:00;;;;;;;13.45;8.43;;;3.80;82.10;;;;;;5001907;28;20054;-68
2022/01/10 09:40:26;;;;;;;20.63;11.55;;;3.80;81.90;;;;;;5001173;28;20551;-68
2022/01/10 09:42:52;;;;;;;31.75;15.60;;;3.80;81.90;;;;;;5003635;28;20041;-68
2022/01/10 09:45:18;;;;;;;30.95;15.60;;;3.80;81.90;;;;;;5004490;28;20046;-68
2022/01/10 09:47:44;;;;;;;19.85;10.95;;;3.80;81.90;;;;;;5004147;28;20656;-68
2022/01/10 09:50:10;;;;;;;21.95;11.23;;;3.90;82.00;;;;;;5003806;28;20571;-68
2022/01/10 09:52:39;;;;;;;17.10;9.85;;;3.90;82.10;;;;;;5001707;28;20038;-68
2022/01/10 09:55:06;;;;;;;16.90;8.80;;;3.90;82.10;;;;;;5003760;28;20436;-68
2022/01/10 09:57:31;;;;;;;13.52;8.23;;;3.90;82.00;;;;;;4986775;28;20527;-68
2022/01/10 09:59:57;;;;;;;14.80;6.93;;;3.90;82.00;;;;;;5003323;28;20120;-68
2022/01/10 10:02:30;;;;;;;12.40;7.75;;;3.90;81.80;;;;;;5002643;28;20031;-68
2022/01/10 10:04:56;;;;;;;13.52;7.68;;;3.90;81.80;;;;;;5001624;28;20037;-68
2022/01/10 10:07:24;;;;;;;11.50;6.93;;;3.90;81.70;;;;;;5004563;28;20029;-68
2022/01/10 10:09:49;;;;;;;13.25;7.28;;;4.00;81.80;;;;;;5003789;28;20057;-68
2022/01/10 10:12:15;;;;;;;10.30;7.07;;;3.90;81.70;;;;;;5018576;28;20038;-69
2022/01/10 10:14:44;;;;;;;11.45;7.28;;;4.00;81.80;;;;;;5007061;28;20033;-68
2022/01/10 10:17:14;;;;;;;11.85;7.47;;;4.00;81.90;;;;;;5006286;28;20057;-68
2022/01/10 10:19:41;;;;;;;13.90;8.27;;;4.00;81.90;;;;;;5006805;28;20508;-68
2022/01/10 10:22:07;;;;;;;14.32;8.70;;;4.00;82.10;;;;;;5008518;28;20045;-69
2022/01/10 10:24:32;;;;;;;16.25;8.88;;;4.00;82.10;;;;;;5006764;28;20041;-68
2022/01/10 10:26:58;;;;;;;13.82;8.52;;;4.10;82.20;;;;;;5004994;28;20072;-68
2022/01/10 10:29:24;;;;;;;15.25;8.48;;;4.10;82.10;;;;;;5008372;28;20134;-68
2022/01/10 10:31:55;;;;;;;20.05;10.75;;;4.10;82.00;;;;;;5005477;28;20123;-68
2022/01/10 10:34:29;;;;;;;18.40;9.75;;;4.20;82.00;;;;;;5007727;28;20514;-68
2022/01/10 10:37:05;;;;;;;18.88;8.48;;;4.20;81.90;;;;;;5006660;28;20045;-68
2022/01/10 10:39:34;;;;;;;16.58;9.50;;;4.20;81.90;;;;;;5006684;28;20100;-68
2022/01/10 10:42:06;;;;;;;18.95;9.13;;;4.30;82.00;;;;;;5009532;28;20037;-68
2022/01/10 10:44:33;;;;;;;29.55;11.93;;;4.30;82.00;;;;;;5006390;28;20057;-68
2022/01/10 10:46:59;;;;;;;21.60;10.45;;;4.30;81.80;;;;;;5004415;28;20125;-68
2022/01/10 10:49:40;;;;;;;16.38;9.32;;;4.40;81.60;;;;;;5006814;28;20065;-68
2022/01/10 10:52:08;;;;;;;18.20;9.05;;;4.40;81.50;;;;;;5006909;28;20052;-68
2022/01/10 10:54:35;;;;;;;15.52;8.60;;;4.40;81.40;;;;;;5004514;28;20519;-68
2022/01/10 10:57:04;;;;;;;14.57;8.75;;;4.40;81.40;;;;;;5006139;28;20504;-69
2022/01/10 10:59:35;;;;;;;14.40;8.50;;;4.40;81.60;;;;;;5006206;28;20448;-68
2022/01/10 11:02:02;;;;;;;14.25;8.73;;;4.50;81.80;;;;;;4999755;28;20030;-68
2022/01/10 11:04:32;;;;;;;20.55;9.68;;;4.50;81.70;;;;;;5003107;28;20461;-68
2022/01/10 11:06:58;;;;;;;17.08;8.73;;;4.60;81.60;;;;;;5000093;28;20034;-68
2022/01/10 11:09:25;;;;;;;15.82;9.50;;;4.60;81.70;;;;;;5000088;28;20040;-69
2022/01/10 11:11:51;;;;;;;13.80;8.82;;;4.60;81.90;;;;;;4999688;28;20033;-68
2022/01/10 11:14:18;;;;;;;16.02;9.10;;;4.60;82.00;;;;;;5004275;28;20560;-69
2022/01/10 11:16:46;;;;;;;16.63;8.38;;;4.70;82.20;;;;;;5003912;28;20049;-68
2022/01/10 11:19:26;;;;;;;14.60;8.10;;;4.70;82.10;;;;;;5000846;28;20038;-68
2022/01/10 11:21:54;;;;;;;12.35;7.93;;;4.80;81.90;;;;;;4999684;28;20038;-69
2022/01/10 11:24:47;;;;;;;14.60;8.30;;;4.80;81.40;;;;;;5001249;28;20444;-67
2022/01/10 11:27:36;;;;;;;18.35;8.63;;;4.90;81.60;;;;;;4998820;28;20057;-68
2022/01/10 11:30:25;;;;;;;15.95;8.48;;;4.90;81.50;;;;;;5001270;28;20091;-69
2022/01/10 11:33:03;;;;;;;16.70;8.65;;;4.90;81.10;;;;;;4999163;28;20052;-68
2022/01/10 11:35:58;;;;;;;17.38;8.57;;;4.90;81.20;;;;;;4998691;28;20401;-68
2022/01/10 11:38:37;;;;;;;15.68;8.23;;;5.00;81.10;;;;;;5005548;28;20038;-68
2022/01/10 11:41:10;;;;;;;13.40;8.38;;;5.00;81.20;;;;;;5005025;28;20038;-67
2022/01/10 11:43:56;;;;;;;17.35;9.23;;;5.00;81.40;;;;;;5005090;28;20509;-69
2022/01/10 11:46:33;;;;;;;15.13;8.75;;;5.10;81.10;;;;;;5006683;28;20030;-68
2022/01/10 11:49:04;;;;;;;18.10;9.32;;;5.10;81.10;;;;;;5006623;28;20505;-66
2022/01/10 11:51:34;;;;;;;16.95;9.40;;;5.10;81.10;;;;;;5004835;28;20053;-66
2022/01/10 11:54:18;;;;;;;18.45;9.70;;;5.20;81.20;;;;;;5004591;28;20065;-68
2022/01/10 11:56:46;;;;;;;17.00;9.48;;;5.20;81.10;;;;;;5004043;28;20045;-68
2022/01/10 11:59:31;;;;;;;19.95;9.90;;;5.30;81.00;;;;;;5001976;28;20080;-68
2022/01/10 12:02:09;;;;;;;18.75;9.88;;;5.30;80.80;;;;;;5005401;28;20038;-68
2022/01/10 12:04:37;;;;;;;16.63;8.70;;;5.40;80.30;;;;;;5004783;28;20069;-68
2022/01/10 12:07:04;;;;;;;17.63;9.40;;;5.40;80.20;;;;;;5006386;28;20056;-67
2022/01/10 12:09:30;;;;;;;16.13;8.88;;;5.40;79.60;;;;;;5003957;28;20049;-68
2022/01/10 12:11:58;;;;;;;20.77;10.00;;;5.40;79.30;;;;;;5000630;28;20038;-68
2022/01/10 12:14:24;;;;;;;15.80;9.27;;;5.40;79.70;;;;;;5005143;28;20531;-69
2022/01/10 12:16:51;;;;;;;17.83;10.00;;;5.40;79.90;;;;;;5005557;28;20044;-67
2022/01/10 12:19:18;;;;;;;15.13;9.52;;;5.40;80.00;;;;;;5005881;28;20088;-68
2022/01/10 12:21:44;;;;;;;17.58;9.68;;;5.50;80.10;;;;;;5005715;28;20124;-67
2022/01/10 12:24:10;;;;;;;15.85;9.73;;;5.50;80.00;;;;;;5006355;28;20112;-67
2022/01/10 12:26:37;;;;;;;19.50;9.68;;;5.50;80.10;;;;;;5005153;28;20536;-67
2022/01/10 12:29:05;;;;;;;18.25;9.88;;;5.60;80.00;;;;;;5003619;28;20049;-67
2022/01/10 12:31:32;;;;;;;18.52;9.77;;;5.60;79.90;;;;;;5004165;28;20113;-68
2022/01/10 12:33:59;;;;;;;19.90;10.38;;;5.70;79.90;;;;;;5006779;28;20023;-67
2022/01/10 12:36:27;;;;;;;20.27;9.45;;;5.70;80.00;;;;;;5003866;28;20044;-68
2022/01/10 12:39:24;;;;;;;17.65;9.93;;;5.70;79.80;;;;;;5003103;28;20034;-68
2022/01/10 12:41:51;;;;;;;17.10;9.75;;;5.70;79.30;;;;;;5004905;28;20041;-68
2022/01/10 12:44:18;;;;;;;18.58;9.13;;;5.80;79.50;;;;;;5005838;28;20387;-68
2022/01/10 12:46:44;;;;;;;17.98;9.27;;;5.80;79.30;;;;;;5003873;28;20044;-67
2022/01/10 12:49:12;;;;;;;19.20;9.20;;;5.80;79.40;;;;;;5004728;28;20037;-68
2022/01/10 12:51:48;;;;;;;18.13;9.90;;;5.80;79.30;;;;;;5003067;28;20026;-68
2022/01/10 12:54:19;;;;;;;21.45;10.20;;;5.80;79.30;;;;;;5004130;28;20103;-68
2022/01/10 12:56:46;;;;;;;16.77;9.65;;;5.90;79.20;;;;;;5003300;28;20171;-68